sensor_id;sensor_type;location;lat;lon;timestamp;P1;durP1;ratioP1;P2;durP2;ratioP2
53618;SDS011;68717;53.040;18.488;2023-04-01T00:00:01;44.78;;;20.55;;
53618;SDS011;68717;53.040;18.488;2023-04-01T00:00:14;42.50;;;19.77;;
53618;SDS011;68717;53.040;18.488;2023-04-01T00:00:47;37.33;;;19.00;;
53618;SDS011;68717;53.040;18.488;2023-04-01T00:01:01;34.45;;;18.58;;
53618;SDS011;68717;53.040;18.488;2023-04-01T00:01:14;38.47;;;18.85;;
53618;SDS011;68717;53.040;18.488;2023-04-01T00:01:28;40.25;;;18.75;;
53618;SDS011;68717;53.040;18.488;2023-04-01T00:01:41;36.40;;;18.08;;
53618;SDS011;68717;53.040;18.488;2023-04-01T00:01:54;32.88;;;17.80;;
53618;SDS011;68717;53.040;18.488;2023-04-01T00:02:08;29.92;;;17.50;;
53618;SDS011;68717;53.040;18.488;2023-04-01T00:02:20;30.52;;;17.25;;
53618;SDS011;68717;53.040;18.488;2023-04-01T00:02:33;29.95;;;17.48;;
53618;SDS011;68717;53.040;18.488;2023-04-01T00:02:46;29.27;;;17.58;;
53618;SDS011;68717;53.040;18.488;2023-04-01T00:02:59;33.22;;;18.10;;
53618;SDS011;68717;53.040;18.488;2023-04-01T00:03:13;34.10;;;17.60;;
53618;SDS011;68717;53.040;18.488;2023-04-01T00:03:26;31.13;;;16.73;;
53618;SDS011;68717;53.040;18.488;2023-04-01T00:03:39;31.42;;;17.10;;
53618;SDS011;68717;53.040;18.488;2023-04-01T00:03:53;30.90;;;17.27;;
53618;SDS011;68717;53.040;18.488;2023-04-01T00:04:08;30.20;;;17.17;;
53618;SDS011;68717;53.040;18.488;2023-04-01T00:04:21;29.48;;;17.52;;
53618;SDS011;68717;53.040;18.488;2023-04-01T00:04:34;28.65;;;17.33;;
53618;SDS011;68717;53.040;18.488;2023-04-01T00:04:46;29.00;;;17.23;;
53618;SDS011;68717;53.040;18.488;2023-04-01T00:05:00;29.85;;;16.80;;
53618;SDS011;68717;53.040;18.488;2023-04-01T00:05:14;31.58;;;17.00;;
53618;SDS011;68717;53.040;18.488;2023-04-01T00:05:28;32.90;;;17.40;;
53618;SDS011;68717;53.040;18.488;2023-04-01T00:05:41;32.05;;;17.63;;
53618;SDS011;68717;53.040;18.488;2023-04-01T00:05:54;29.23;;;17.42;;
53618;SDS011;68717;53.040;18.488;2023-04-01T00:06:08;30.17;;;17.13;;
53618;SDS011;68717;53.040;18.488;2023-04-01T00:06:24;30.10;;;17.00;;
53618;SDS011;68717;53.040;18.488;2023-04-01T00:06:38;29.63;;;17.20;;
53618;SDS011;68717;53.040;18.488;2023-04-01T00:06:51;29.42;;;17.17;;
53618;SDS011;68717;53.040;18.488;2023-04-01T00:07:03;28.20;;;16.70;;
53618;SDS011;68717;53.040;18.488;2023-04-01T00:07:16;27.80;;;16.17;;
53618;SDS011;68717;53.040;18.488;2023-04-01T00:07:29;26.83;;;15.80;;
53618;SDS011;68717;53.040;18.488;2023-04-01T00:07:42;27.88;;;16.05;;
53618;SDS011;68717;53.040;18.488;2023-04-01T00:07:54;28.67;;;16.77;;
53618;SDS011;68717;53.040;18.488;2023-04-01T00:08:07;28.40;;;16.75;;
53618;SDS011;68717;53.040;18.488;2023-04-01T00:08:23;26.15;;;15.90;;
53618;SDS011;68717;53.040;18.488;2023-04-01T00:08:36;24.88;;;15.85;;
53618;SDS011;68717;53.040;18.488;2023-04-01T00:08:49;26.33;;;16.10;;
53618;SDS011;68717;53.040;18.488;2023-04-01T00:09:02;27.45;;;16.13;;
53618;SDS011;68717;53.040;18.488;2023-04-01T00:09:16;28.85;;;16.55;;
53618;SDS011;68717;53.040;18.488;2023-04-01T00:09:29;28.70;;;16.70;;
53618;SDS011;68717;53.040;18.488;2023-04-01T00:09:42;27.13;;;16.50;;
53618;SDS011;68717;53.040;18.488;2023-04-01T00:09:55;27.73;;;16.52;;
53618;SDS011;68717;53.040;18.488;2023-04-01T00:10:09;27.08;;;16.55;;
53618;SDS011;68717;53.040;18.488;2023-04-01T00:10:23;27.48;;;16.75;;
53618;SDS011;68717;53.040;18.488;2023-04-01T00:10:35;27.48;;;16.45;;
53618;SDS011;68717;53.040;18.488;2023-04-01T00:10:48;25.70;;;16.00;;
53618;SDS011;68717;53.040;18.488;2023-04-01T00:11:01;26.27;;;15.98;;
53618;SDS011;68717;53.040;18.488;2023-04-01T00:11:14;27.50;;;16.25;;
53618;SDS011;68717;53.040;18.488;2023-04-01T00:11:27;26.38;;;15.98;;
53618;SDS011;68717;53.040;18.488;2023-04-01T00:11:41;26.00;;;15.65;;
53618;SDS011;68717;53.040;18.488;2023-04-01T00:11:54;26.60;;;16.08;;
53618;SDS011;68717;53.040;18.488;2023-04-01T00:12:06;28.23;;;16.50;;
53618;SDS011;68717;53.040;18.488;2023-04-01T00:12:19;26.20;;;16.15;;
53618;SDS011;68717;53.040;18.488;2023-04-01T00:12:32;24.90;;;15.63;;
53618;SDS011;68717;53.040;18.488;2023-04-01T00:12:44;23.52;;;15.32;;
53618;SDS011;68717;53.040;18.488;2023-04-01T00:12:57;23.67;;;15.07;;
53618;SDS011;68717;53.040;18.488;2023-04-01T00:13:11;25.60;;;14.80;;
53618;SDS011;68717;53.040;18.488;2023-04-01T00:13:24;26.35;;;15.20;;
53618;SDS011;68717;53.040;18.488;2023-04-01T00:13:38;25.70;;;15.63;;
53618;SDS011;68717;53.040;18.488;2023-04-01T00:13:51;26.27;;;15.95;;
53618;SDS011;68717;53.040;18.488;2023-04-01T00:14:04;25.48;;;15.60;;
53618;SDS011;68717;53.040;18.488;2023-04-01T00:14:17;25.20;;;15.35;;
53618;SDS011;68717;53.040;18.488;2023-04-01T00:14:29;25.25;;;15.93;;
53618;SDS011;68717;53.040;18.488;2023-04-01T00:14:42;24.77;;;16.38;;
53618;SDS011;68717;53.040;18.488;2023-04-01T00:14:56;26.08;;;16.02;;
53618;SDS011;68717;53.040;18.488;2023-04-01T00:15:09;26.05;;;15.82;;
53618;SDS011;68717;53.040;18.488;2023-04-01T00:15:23;25.10;;;15.93;;
53618;SDS011;68717;53.040;18.488;2023-04-01T00:15:36;25.40;;;15.98;;
53618;SDS011;68717;53.040;18.488;2023-04-01T00:15:49;26.98;;;16.33;;
53618;SDS011;68717;53.040;18.488;2023-04-01T00:16:02;27.80;;;16.77;;
53618;SDS011;68717;53.040;18.488;2023-04-01T00:16:31;26.98;;;15.85;;
53618;SDS011;68717;53.040;18.488;2023-04-01T00:16:45;27.05;;;15.85;;
53618;SDS011;68717;53.040;18.488;2023-04-01T00:16:58;27.05;;;15.98;;
53618;SDS011;68717;53.040;18.488;2023-04-01T00:17:10;25.63;;;16.38;;
53618;SDS011;68717;53.040;18.488;2023-04-01T00:17:23;24.52;;;16.27;;
53618;SDS011;68717;53.040;18.488;2023-04-01T00:17:36;24.08;;;15.93;;
53618;SDS011;68717;53.040;18.488;2023-04-01T00:17:49;25.88;;;15.95;;
53618;SDS011;68717;53.040;18.488;2023-04-01T00:18:02;25.98;;;16.13;;
53618;SDS011;68717;53.040;18.488;2023-04-01T00:18:15;25.80;;;16.20;;
53618;SDS011;68717;53.040;18.488;2023-04-01T00:18:29;25.77;;;16.08;;
53618;SDS011;68717;53.040;18.488;2023-04-01T00:18:42;26.70;;;16.13;;
53618;SDS011;68717;53.040;18.488;2023-04-01T00:18:54;26.65;;;16.27;;
53618;SDS011;68717;53.040;18.488;2023-04-01T00:19:07;27.27;;;16.08;;
53618;SDS011;68717;53.040;18.488;2023-04-01T00:19:20;26.77;;;15.77;;
53618;SDS011;68717;53.040;18.488;2023-04-01T00:19:32;26.10;;;16.15;;
53618;SDS011;68717;53.040;18.488;2023-04-01T00:19:45;26.70;;;16.33;;
53618;SDS011;68717;53.040;18.488;2023-04-01T00:20:00;26.90;;;16.27;;
53618;SDS011;68717;53.040;18.488;2023-04-01T00:20:14;28.27;;;16.80;;
53618;SDS011;68717;53.040;18.488;2023-04-01T00:20:28;27.90;;;16.88;;
53618;SDS011;68717;53.040;18.488;2023-04-01T00:20:43;25.65;;;15.95;;
53618;SDS011;68717;53.040;18.488;2023-04-01T00:20:56;24.90;;;15.40;;
53618;SDS011;68717;53.040;18.488;2023-04-01T00:21:09;25.17;;;15.70;;
53618;SDS011;68717;53.040;18.488;2023-04-01T00:21:22;25.00;;;15.73;;
53618;SDS011;68717;53.040;18.488;2023-04-01T00:21:35;23.70;;;15.15;;
53618;SDS011;68717;53.040;18.488;2023-04-01T00:21:48;24.20;;;15.18;;
53618;SDS011;68717;53.040;18.488;2023-04-01T00:22:01;24.63;;;15.23;;
53618;SDS011;68717;53.040;18.488;2023-04-01T00:22:14;25.98;;;15.77;;
53618;SDS011;68717;53.040;18.488;2023-04-01T00:22:26;27.33;;;16.27;;
53618;SDS011;68717;53.040;18.488;2023-04-01T00:22:39;25.98;;;15.95;;
53618;SDS011;68717;53.040;18.488;2023-04-01T00:22:53;27.45;;;16.02;;
53618;SDS011;68717;53.040;18.488;2023-04-01T00:23:05;26.55;;;15.95;;
53618;SDS011;68717;53.040;18.488;2023-04-01T00:23:18;25.33;;;16.00;;
53618;SDS011;68717;53.040;18.488;2023-04-01T00:23:32;26.75;;;16.42;;
53618;SDS011;68717;53.040;18.488;2023-04-01T00:23:45;26.75;;;16.27;;
53618;SDS011;68717;53.040;18.488;2023-04-01T00:23:57;26.05;;;15.98;;
53618;SDS011;68717;53.040;18.488;2023-04-01T00:24:11;26.35;;;15.75;;
53618;SDS011;68717;53.040;18.488;2023-04-01T00:24:24;26.13;;;15.63;;
53618;SDS011;68717;53.040;18.488;2023-04-01T00:24:36;26.70;;;15.93;;
53618;SDS011;68717;53.040;18.488;2023-04-01T00:24:49;27.33;;;15.95;;
53618;SDS011;68717;53.040;18.488;2023-04-01T00:25:02;27.58;;;16.15;;
53618;SDS011;68717;53.040;18.488;2023-04-01T00:25:16;25.77;;;16.27;;
53618;SDS011;68717;53.040;18.488;2023-04-01T00:25:29;27.23;;;16.50;;
53618;SDS011;68717;53.040;18.488;2023-04-01T00:25:43;27.17;;;16.60;;
53618;SDS011;68717;53.040;18.488;2023-04-01T00:26:00;24.83;;;15.80;;
53618;SDS011;68717;53.040;18.488;2023-04-01T00:26:13;24.05;;;15.60;;
53618;SDS011;68717;53.040;18.488;2023-04-01T00:26:29;26.42;;;16.52;;
53618;SDS011;68717;53.040;18.488;2023-04-01T00:26:42;26.30;;;16.30;;
53618;SDS011;68717;53.040;18.488;2023-04-01T00:26:56;25.52;;;15.63;;
53618;SDS011;68717;53.040;18.488;2023-04-01T00:27:09;25.90;;;15.60;;
53618;SDS011;68717;53.040;18.488;2023-04-01T00:27:22;27.00;;;15.57;;
53618;SDS011;68717;53.040;18.488;2023-04-01T00:27:34;28.48;;;15.50;;
53618;SDS011;68717;53.040;18.488;2023-04-01T00:27:47;27.05;;;15.30;;
53618;SDS011;68717;53.040;18.488;2023-04-01T00:28:01;23.83;;;14.90;;
53618;SDS011;68717;53.040;18.488;2023-04-01T00:28:15;24.88;;;15.55;;
53618;SDS011;68717;53.040;18.488;2023-04-01T00:28:30;24.63;;;15.55;;
53618;SDS011;68717;53.040;18.488;2023-04-01T00:28:46;23.90;;;15.25;;
53618;SDS011;68717;53.040;18.488;2023-04-01T00:29:00;23.55;;;15.18;;
53618;SDS011;68717;53.040;18.488;2023-04-01T00:29:13;23.63;;;14.93;;
53618;SDS011;68717;53.040;18.488;2023-04-01T00:29:25;25.45;;;15.48;;
53618;SDS011;68717;53.040;18.488;2023-04-01T00:29:41;25.65;;;15.50;;
53618;SDS011;68717;53.040;18.488;2023-04-01T00:29:54;23.52;;;15.00;;
53618;SDS011;68717;53.040;18.488;2023-04-01T00:30:07;22.25;;;14.88;;
53618;SDS011;68717;53.040;18.488;2023-04-01T00:30:22;23.48;;;15.13;;
53618;SDS011;68717;53.040;18.488;2023-04-01T00:30:35;24.13;;;15.23;;
53618;SDS011;68717;53.040;18.488;2023-04-01T00:30:48;24.48;;;15.13;;
53618;SDS011;68717;53.040;18.488;2023-04-01T00:31:03;24.67;;;15.18;;
53618;SDS011;68717;53.040;18.488;2023-04-01T00:31:18;23.48;;;14.90;;
53618;SDS011;68717;53.040;18.488;2023-04-01T00:31:31;24.35;;;14.95;;
53618;SDS011;68717;53.040;18.488;2023-04-01T00:31:45;25.08;;;15.20;;
53618;SDS011;68717;53.040;18.488;2023-04-01T00:31:58;24.77;;;15.35;;
53618;SDS011;68717;53.040;18.488;2023-04-01T00:32:10;25.35;;;15.32;;
53618;SDS011;68717;53.040;18.488;2023-04-01T00:32:23;25.05;;;15.52;;
53618;SDS011;68717;53.040;18.488;2023-04-01T00:32:37;24.48;;;15.43;;
53618;SDS011;68717;53.040;18.488;2023-04-01T00:32:51;24.65;;;15.30;;
53618;SDS011;68717;53.040;18.488;2023-04-01T00:33:04;25.65;;;15.45;;
53618;SDS011;68717;53.040;18.488;2023-04-01T00:33:17;24.83;;;15.55;;
53618;SDS011;68717;53.040;18.488;2023-04-01T00:33:30;23.95;;;15.80;;
53618;SDS011;68717;53.040;18.488;2023-04-01T00:33:43;23.73;;;15.55;;
53618;SDS011;68717;53.040;18.488;2023-04-01T00:33:55;23.98;;;15.43;;
53618;SDS011;68717;53.040;18.488;2023-04-01T00:34:08;24.35;;;15.35;;
53618;SDS011;68717;53.040;18.488;2023-04-01T00:34:21;25.95;;;15.85;;
53618;SDS011;68717;53.040;18.488;2023-04-01T00:34:34;24.70;;;15.40;;
53618;SDS011;68717;53.040;18.488;2023-04-01T00:34:49;23.83;;;15.23;;
53618;SDS011;68717;53.040;18.488;2023-04-01T00:35:04;24.75;;;15.70;;
53618;SDS011;68717;53.040;18.488;2023-04-01T00:35:17;25.33;;;15.82;;
53618;SDS011;68717;53.040;18.488;2023-04-01T00:35:30;28.13;;;16.20;;
53618;SDS011;68717;53.040;18.488;2023-04-01T00:35:44;27.52;;;16.25;;
53618;SDS011;68717;53.040;18.488;2023-04-01T00:36:04;25.95;;;15.65;;
53618;SDS011;68717;53.040;18.488;2023-04-01T00:36:19;27.45;;;15.27;;
53618;SDS011;68717;53.040;18.488;2023-04-01T00:36:33;24.45;;;15.15;;
53618;SDS011;68717;53.040;18.488;2023-04-01T00:36:48;24.13;;;14.93;;
53618;SDS011;68717;53.040;18.488;2023-04-01T00:37:00;24.85;;;14.70;;
53618;SDS011;68717;53.040;18.488;2023-04-01T00:37:13;24.35;;;14.85;;
53618;SDS011;68717;53.040;18.488;2023-04-01T00:37:26;24.50;;;14.70;;
53618;SDS011;68717;53.040;18.488;2023-04-01T00:37:38;23.83;;;14.43;;
53618;SDS011;68717;53.040;18.488;2023-04-01T00:37:51;22.35;;;14.75;;
53618;SDS011;68717;53.040;18.488;2023-04-01T00:38:04;23.25;;;14.77;;
53618;SDS011;68717;53.040;18.488;2023-04-01T00:38:18;25.65;;;15.23;;
53618;SDS011;68717;53.040;18.488;2023-04-01T00:38:31;25.65;;;15.73;;
53618;SDS011;68717;53.040;18.488;2023-04-01T00:38:44;23.60;;;15.60;;
53618;SDS011;68717;53.040;18.488;2023-04-01T00:38:57;23.30;;;16.00;;
53618;SDS011;68717;53.040;18.488;2023-04-01T00:39:11;24.98;;;15.75;;
53618;SDS011;68717;53.040;18.488;2023-04-01T00:39:24;24.80;;;15.07;;
53618;SDS011;68717;53.040;18.488;2023-04-01T00:39:36;23.33;;;14.55;;
53618;SDS011;68717;53.040;18.488;2023-04-01T00:39:50;22.95;;;14.60;;
53618;SDS011;68717;53.040;18.488;2023-04-01T00:40:03;22.58;;;14.73;;
53618;SDS011;68717;53.040;18.488;2023-04-01T00:40:22;25.52;;;15.20;;
53618;SDS011;68717;53.040;18.488;2023-04-01T00:40:38;26.63;;;16.02;;
53618;SDS011;68717;53.040;18.488;2023-04-01T00:40:57;24.75;;;16.20;;
53618;SDS011;68717;53.040;18.488;2023-04-01T00:41:12;24.00;;;16.08;;
53618;SDS011;68717;53.040;18.488;2023-04-01T00:41:26;24.55;;;16.17;;
53618;SDS011;68717;53.040;18.488;2023-04-01T00:41:40;25.92;;;16.35;;
53618;SDS011;68717;53.040;18.488;2023-04-01T00:41:53;24.85;;;15.85;;
53618;SDS011;68717;53.040;18.488;2023-04-01T00:42:05;23.77;;;15.82;;
53618;SDS011;68717;53.040;18.488;2023-04-01T00:42:18;24.75;;;15.82;;
53618;SDS011;68717;53.040;18.488;2023-04-01T00:42:31;26.08;;;16.08;;
53618;SDS011;68717;53.040;18.488;2023-04-01T00:42:44;26.35;;;16.38;;
53618;SDS011;68717;53.040;18.488;2023-04-01T00:42:56;25.83;;;16.30;;
53618;SDS011;68717;53.040;18.488;2023-04-01T00:43:11;26.30;;;16.40;;
53618;SDS011;68717;53.040;18.488;2023-04-01T00:43:26;26.45;;;16.48;;
53618;SDS011;68717;53.040;18.488;2023-04-01T00:43:39;27.15;;;16.65;;
53618;SDS011;68717;53.040;18.488;2023-04-01T00:44:27;25.35;;;15.95;;
53618;SDS011;68717;53.040;18.488;2023-04-01T00:44:44;25.55;;;16.13;;
53618;SDS011;68717;53.040;18.488;2023-04-01T00:45:21;26.23;;;16.52;;
53618;SDS011;68717;53.040;18.488;2023-04-01T00:45:42;26.70;;;16.13;;
53618;SDS011;68717;53.040;18.488;2023-04-01T00:45:55;27.45;;;16.30;;
53618;SDS011;68717;53.040;18.488;2023-04-01T00:46:09;27.27;;;16.33;;
53618;SDS011;68717;53.040;18.488;2023-04-01T00:46:23;27.63;;;16.40;;
53618;SDS011;68717;53.040;18.488;2023-04-01T00:46:35;26.10;;;16.13;;
53618;SDS011;68717;53.040;18.488;2023-04-01T00:46:48;24.15;;;15.43;;
53618;SDS011;68717;53.040;18.488;2023-04-01T00:47:01;25.48;;;15.57;;
53618;SDS011;68717;53.040;18.488;2023-04-01T00:47:15;26.20;;;15.85;;
53618;SDS011;68717;53.040;18.488;2023-04-01T00:47:27;25.45;;;15.75;;
53618;SDS011;68717;53.040;18.488;2023-04-01T00:47:41;26.50;;;15.20;;
53618;SDS011;68717;53.040;18.488;2023-04-01T00:47:54;27.55;;;15.02;;
53618;SDS011;68717;53.040;18.488;2023-04-01T00:48:09;26.35;;;15.18;;
53618;SDS011;68717;53.040;18.488;2023-04-01T00:48:26;26.95;;;15.45;;
53618;SDS011;68717;53.040;18.488;2023-04-01T00:48:43;29.77;;;16.23;;
53618;SDS011;68717;53.040;18.488;2023-04-01T00:48:58;27.17;;;16.58;;
53618;SDS011;68717;53.040;18.488;2023-04-01T00:49:13;25.23;;;16.23;;
53618;SDS011;68717;53.040;18.488;2023-04-01T00:49:28;25.02;;;16.13;;
53618;SDS011;68717;53.040;18.488;2023-04-01T00:49:45;26.88;;;16.13;;
53618;SDS011;68717;53.040;18.488;2023-04-01T00:50:00;27.50;;;15.93;;
53618;SDS011;68717;53.040;18.488;2023-04-01T00:50:14;25.67;;;15.77;;
53618;SDS011;68717;53.040;18.488;2023-04-01T00:50:27;26.17;;;15.80;;
53618;SDS011;68717;53.040;18.488;2023-04-01T00:50:43;27.40;;;16.58;;
53618;SDS011;68717;53.040;18.488;2023-04-01T00:51:01;26.23;;;16.45;;
53618;SDS011;68717;53.040;18.488;2023-04-01T00:51:18;26.25;;;15.90;;
53618;SDS011;68717;53.040;18.488;2023-04-01T00:51:34;26.92;;;16.42;;
53618;SDS011;68717;53.040;18.488;2023-04-01T00:51:48;26.45;;;16.42;;
53618;SDS011;68717;53.040;18.488;2023-04-01T00:52:04;26.35;;;16.30;;
53618;SDS011;68717;53.040;18.488;2023-04-01T00:52:21;26.20;;;16.15;;
53618;SDS011;68717;53.040;18.488;2023-04-01T00:52:37;25.63;;;15.55;;
53618;SDS011;68717;53.040;18.488;2023-04-01T00:52:50;26.25;;;15.60;;
53618;SDS011;68717;53.040;18.488;2023-04-01T00:53:03;27.20;;;15.48;;
53618;SDS011;68717;53.040;18.488;2023-04-01T00:53:17;26.10;;;15.50;;
53618;SDS011;68717;53.040;18.488;2023-04-01T00:53:32;25.08;;;15.35;;
53618;SDS011;68717;53.040;18.488;2023-04-01T00:53:50;26.08;;;15.30;;
53618;SDS011;68717;53.040;18.488;2023-04-01T00:54:04;24.95;;;15.25;;
53618;SDS011;68717;53.040;18.488;2023-04-01T00:54:19;23.27;;;14.77;;
53618;SDS011;68717;53.040;18.488;2023-04-01T00:54:33;24.60;;;15.38;;
53618;SDS011;68717;53.040;18.488;2023-04-01T00:54:48;24.50;;;15.43;;
53618;SDS011;68717;53.040;18.488;2023-04-01T00:55:06;23.90;;;15.30;;
53618;SDS011;68717;53.040;18.488;2023-04-01T00:55:23;25.25;;;15.80;;
53618;SDS011;68717;53.040;18.488;2023-04-01T00:55:39;25.00;;;15.55;;
53618;SDS011;68717;53.040;18.488;2023-04-01T00:55:58;25.02;;;15.40;;
53618;SDS011;68717;53.040;18.488;2023-04-01T00:56:15;24.00;;;15.02;;
53618;SDS011;68717;53.040;18.488;2023-04-01T00:56:31;27.02;;;15.40;;
53618;SDS011;68717;53.040;18.488;2023-04-01T00:56:48;26.23;;;15.07;;
53618;SDS011;68717;53.040;18.488;2023-04-01T00:57:08;25.63;;;15.77;;
53618;SDS011;68717;53.040;18.488;2023-04-01T00:57:27;26.77;;;16.17;;
53618;SDS011;68717;53.040;18.488;2023-04-01T00:57:43;26.00;;;16.17;;
53618;SDS011;68717;53.040;18.488;2023-04-01T00:57:58;25.30;;;15.63;;
53618;SDS011;68717;53.040;18.488;2023-04-01T00:58:15;26.45;;;15.95;;
53618;SDS011;68717;53.040;18.488;2023-04-01T00:58:31;25.92;;;15.75;;
53618;SDS011;68717;53.040;18.488;2023-04-01T00:58:49;25.17;;;15.63;;
53618;SDS011;68717;53.040;18.488;2023-04-01T00:59:08;25.83;;;16.48;;
53618;SDS011;68717;53.040;18.488;2023-04-01T00:59:25;25.42;;;16.30;;
53618;SDS011;68717;53.040;18.488;2023-04-01T00:59:40;25.23;;;15.63;;
53618;SDS011;68717;53.040;18.488;2023-04-01T00:59:56;27.65;;;15.88;;
53618;SDS011;68717;53.040;18.488;2023-04-01T01:00:10;26.60;;;15.90;;
53618;SDS011;68717;53.040;18.488;2023-04-01T01:00:26;23.92;;;15.95;;
53618;SDS011;68717;53.040;18.488;2023-04-01T01:00:39;24.55;;;15.93;;
53618;SDS011;68717;53.040;18.488;2023-04-01T01:00:52;24.08;;;15.40;;
53618;SDS011;68717;53.040;18.488;2023-04-01T01:01:07;23.88;;;15.38;;
53618;SDS011;68717;53.040;18.488;2023-04-01T01:01:21;23.90;;;15.13;;
53618;SDS011;68717;53.040;18.488;2023-04-01T01:01:36;24.83;;;14.88;;
53618;SDS011;68717;53.040;18.488;2023-04-01T01:01:49;24.52;;;14.88;;
53618;SDS011;68717;53.040;18.488;2023-04-01T01:02:04;24.35;;;15.45;;
53618;SDS011;68717;53.040;18.488;2023-04-01T01:02:19;25.60;;;15.65;;
53618;SDS011;68717;53.040;18.488;2023-04-01T01:02:32;25.35;;;15.25;;
53618;SDS011;68717;53.040;18.488;2023-04-01T01:02:47;24.60;;;14.98;;
53618;SDS011;68717;53.040;18.488;2023-04-01T01:03:03;24.45;;;14.85;;
53618;SDS011;68717;53.040;18.488;2023-04-01T01:03:15;24.85;;;15.25;;
53618;SDS011;68717;53.040;18.488;2023-04-01T01:03:29;24.10;;;15.35;;
53618;SDS011;68717;53.040;18.488;2023-04-01T01:03:43;25.15;;;15.27;;
53618;SDS011;68717;53.040;18.488;2023-04-01T01:03:55;25.42;;;15.45;;
53618;SDS011;68717;53.040;18.488;2023-04-01T01:04:19;24.30;;;15.20;;
53618;SDS011;68717;53.040;18.488;2023-04-01T01:04:34;23.08;;;14.77;;
53618;SDS011;68717;53.040;18.488;2023-04-01T01:04:47;23.60;;;15.25;;
53618;SDS011;68717;53.040;18.488;2023-04-01T01:05:00;24.25;;;15.38;;
53618;SDS011;68717;53.040;18.488;2023-04-01T01:05:14;24.73;;;15.27;;
53618;SDS011;68717;53.040;18.488;2023-04-01T01:05:31;25.77;;;15.30;;
53618;SDS011;68717;53.040;18.488;2023-04-01T01:06:46;24.20;;;15.15;;
53618;SDS011;68717;53.040;18.488;2023-04-01T01:07:09;22.52;;;14.45;;
53618;SDS011;68717;53.040;18.488;2023-04-01T01:07:32;22.98;;;14.30;;
53618;SDS011;68717;53.040;18.488;2023-04-01T01:07:54;25.00;;;14.98;;
53618;SDS011;68717;53.040;18.488;2023-04-01T01:08:17;23.52;;;14.40;;
53618;SDS011;68717;53.040;18.488;2023-04-01T01:08:47;23.05;;;14.52;;
53618;SDS011;68717;53.040;18.488;2023-04-01T01:09:30;23.60;;;14.60;;
53618;SDS011;68717;53.040;18.488;2023-04-01T01:09:52;24.05;;;14.70;;
53618;SDS011;68717;53.040;18.488;2023-04-01T01:10:15;23.80;;;14.90;;
53618;SDS011;68717;53.040;18.488;2023-04-01T01:10:31;22.20;;;14.32;;
53618;SDS011;68717;53.040;18.488;2023-04-01T01:10:45;23.95;;;14.68;;
53618;SDS011;68717;53.040;18.488;2023-04-01T01:11:02;23.70;;;14.27;;
53618;SDS011;68717;53.040;18.488;2023-04-01T01:11:18;22.40;;;14.23;;
53618;SDS011;68717;53.040;18.488;2023-04-01T01:11:40;21.67;;;14.05;;
53618;SDS011;68717;53.040;18.488;2023-04-01T01:11:58;21.40;;;13.77;;
53618;SDS011;68717;53.040;18.488;2023-04-01T01:12:18;21.70;;;13.70;;
53618;SDS011;68717;53.040;18.488;2023-04-01T01:12:34;22.17;;;13.93;;
53618;SDS011;68717;53.040;18.488;2023-04-01T01:12:53;23.50;;;14.20;;
53618;SDS011;68717;53.040;18.488;2023-04-01T01:13:15;24.40;;;14.77;;
53618;SDS011;68717;53.040;18.488;2023-04-01T01:13:33;22.70;;;14.32;;
53618;SDS011;68717;53.040;18.488;2023-04-01T01:13:55;22.58;;;14.32;;
53618;SDS011;68717;53.040;18.488;2023-04-01T01:14:19;24.05;;;14.82;;
53618;SDS011;68717;53.040;18.488;2023-04-01T01:14:45;22.50;;;14.13;;
53618;SDS011;68717;53.040;18.488;2023-04-01T01:15:07;24.35;;;14.73;;
53618;SDS011;68717;53.040;18.488;2023-04-01T01:15:29;25.27;;;14.30;;
53618;SDS011;68717;53.040;18.488;2023-04-01T01:15:46;23.08;;;14.57;;
53618;SDS011;68717;53.040;18.488;2023-04-01T01:16:03;22.38;;;14.27;;
53618;SDS011;68717;53.040;18.488;2023-04-01T01:16:23;24.50;;;14.75;;
53618;SDS011;68717;53.040;18.488;2023-04-01T01:16:40;24.52;;;14.52;;
53618;SDS011;68717;53.040;18.488;2023-04-01T01:16:58;22.90;;;14.25;;
53618;SDS011;68717;53.040;18.488;2023-04-01T01:17:19;23.17;;;14.73;;
53618;SDS011;68717;53.040;18.488;2023-04-01T01:17:48;22.90;;;14.70;;
53618;SDS011;68717;53.040;18.488;2023-04-01T01:18:09;23.50;;;14.70;;
53618;SDS011;68717;53.040;18.488;2023-04-01T01:18:32;22.88;;;14.35;;
53618;SDS011;68717;53.040;18.488;2023-04-01T01:18:49;22.75;;;13.90;;
53618;SDS011;68717;53.040;18.488;2023-04-01T01:19:08;23.42;;;13.77;;
53618;SDS011;68717;53.040;18.488;2023-04-01T01:19:42;21.73;;;13.98;;
53618;SDS011;68717;53.040;18.488;2023-04-01T01:21:30;23.60;;;14.65;;
53618;SDS011;68717;53.040;18.488;2023-04-01T01:22:10;25.35;;;14.65;;
53618;SDS011;68717;53.040;18.488;2023-04-01T01:22:36;24.15;;;15.13;;
53618;SDS011;68717;53.040;18.488;2023-04-01T01:24:57;23.95;;;15.13;;
53618;SDS011;68717;53.040;18.488;2023-04-01T01:25:30;25.65;;;14.85;;
53618;SDS011;68717;53.040;18.488;2023-04-01T01:25:51;23.30;;;14.98;;
53618;SDS011;68717;53.040;18.488;2023-04-01T01:26:24;23.98;;;14.70;;
53618;SDS011;68717;53.040;18.488;2023-04-01T01:26:58;24.17;;;15.00;;
53618;SDS011;68717;53.040;18.488;2023-04-01T01:27:15;22.73;;;14.60;;
53618;SDS011;68717;53.040;18.488;2023-04-01T01:27:29;23.63;;;14.82;;
53618;SDS011;68717;53.040;18.488;2023-04-01T01:27:47;23.58;;;14.98;;
53618;SDS011;68717;53.040;18.488;2023-04-01T01:28:13;23.13;;;14.02;;
53618;SDS011;68717;53.040;18.488;2023-04-01T01:28:41;23.83;;;14.73;;
53618;SDS011;68717;53.040;18.488;2023-04-01T01:29:04;23.75;;;14.50;;
53618;SDS011;68717;53.040;18.488;2023-04-01T01:29:32;22.88;;;13.73;;
53618;SDS011;68717;53.040;18.488;2023-04-01T01:30:10;23.10;;;14.35;;
53618;SDS011;68717;53.040;18.488;2023-04-01T01:30:35;22.23;;;14.20;;
53618;SDS011;68717;53.040;18.488;2023-04-01T01:30:51;22.23;;;13.80;;
53618;SDS011;68717;53.040;18.488;2023-04-01T01:31:15;23.73;;;14.60;;
53618;SDS011;68717;53.040;18.488;2023-04-01T01:31:36;24.15;;;14.57;;
53618;SDS011;68717;53.040;18.488;2023-04-01T01:31:56;24.40;;;15.10;;
53618;SDS011;68717;53.040;18.488;2023-04-01T01:32:19;24.10;;;15.02;;
53618;SDS011;68717;53.040;18.488;2023-04-01T01:33:01;24.70;;;14.98;;
53618;SDS011;68717;53.040;18.488;2023-04-01T01:33:47;24.23;;;14.95;;
53618;SDS011;68717;53.040;18.488;2023-04-01T01:34:12;23.05;;;14.55;;
53618;SDS011;68717;53.040;18.488;2023-04-01T01:34:32;23.77;;;15.05;;
53618;SDS011;68717;53.040;18.488;2023-04-01T01:34:51;22.38;;;14.50;;
53618;SDS011;68717;53.040;18.488;2023-04-01T01:35:15;24.70;;;14.90;;
53618;SDS011;68717;53.040;18.488;2023-04-01T01:35:33;25.77;;;15.13;;
53618;SDS011;68717;53.040;18.488;2023-04-01T01:35:51;23.08;;;14.43;;
53618;SDS011;68717;53.040;18.488;2023-04-01T01:36:06;21.75;;;13.73;;
53618;SDS011;68717;53.040;18.488;2023-04-01T01:36:24;21.42;;;13.57;;
53618;SDS011;68717;53.040;18.488;2023-04-01T01:36:41;23.65;;;14.70;;
53618;SDS011;68717;53.040;18.488;2023-04-01T01:36:57;24.45;;;14.80;;